Time;durP1;ratioP1;P1;durP2;ratioP2;P2;SDS_P1;SDS_P2;PMS_P1;PMS_P2;Temp;Humidity;BMP_temperature;BMP_pressure;BME280_temperature;BME280_humidity;BME280_pressure;Samples;Min_cycle;Max_cycle;Signal;HPM_P1;HPM_P2
2023/04/21 00:00:00;;;;;;;7.93;2.70;;;6.80;99.90;5.70;101166;;;;568413;246;24185;-75
2023/04/21 00:02:29;;;;;;;5.47;2.80;;;6.70;99.90;5.70;101163;;;;573616;246;27304;-81
2023/04/21 00:04:57;;;;;;;4.53;2.63;;;6.60;99.90;5.60;101162;;;;572696;246;24099;-75
2023/04/21 00:07:24;;;;;;;4.37;2.53;;;6.60;99.90;5.60;101164;;;;572826;246;24100;-76
2023/04/21 00:09:52;;;;;;;3.57;3.10;;;6.50;99.90;5.50;101159;;;;572696;246;24102;-74
2023/04/21 00:12:21;;;;;;;19.03;2.83;;;6.50;99.90;5.50;101153;;;;572808;246;24083;-76
2023/04/21 00:14:52;;;;;;;7.93;3.10;;;6.40;99.90;5.50;101159;;;;573212;246;24054;-76
2023/04/21 00:17:20;;;;;;;4.20;2.67;;;6.50;99.90;5.50;101160;;;;568343;246;24117;-75
2023/04/21 00:19:48;;;;;;;3.50;2.30;;;6.40;99.90;5.50;101164;;;;573157;246;24116;-75
2023/04/21 00:22:20;;;;;;;3.20;2.70;;;6.40;99.90;5.50;101157;;;;573187;246;24092;-75
2023/04/21 00:24:44;;;;;;;10.20;2.83;;;6.40;99.90;5.50;101159;;;;576595;243;24114;-75
2023/04/21 00:27:14;;;;;;;10.47;3.00;;;6.40;99.90;5.50;101163;;;;573111;246;24096;-79
2023/04/21 00:29:40;;;;;;;4.60;2.67;;;6.40;99.90;5.50;101155;;;;572771;246;24164;-80
2023/04/21 00:32:12;;;;;;;5.33;2.77;;;6.40;99.90;5.40;101162;;;;572782;246;24107;-80
2023/04/21 00:34:36;;;;;;;8.20;2.57;;;6.40;99.90;5.50;101166;;;;572398;246;24129;-80
2023/04/21 00:37:04;;;;;;;6.37;2.67;;;6.40;99.90;5.40;101157;;;;572864;246;24078;-75
2023/04/21 00:39:32;;;;;;;6.37;2.80;;;6.40;99.90;5.50;101159;;;;573940;246;24054;-74
2023/04/21 00:42:00;;;;;;;5.10;2.93;;;6.40;99.90;5.50;101171;;;;573963;246;24050;-73
2023/04/21 00:44:28;;;;;;;3.57;2.40;;;6.40;99.90;5.50;101167;;;;573594;246;24072;-74
2023/04/21 00:46:56;;;;;;;3.77;2.70;;;6.40;99.90;5.60;101164;;;;573683;246;24056;-76
2023/04/21 00:49:23;;;;;;;7.00;2.57;;;6.60;99.90;5.70;101163;;;;573414;246;24088;-76
2023/04/21 00:51:51;;;;;;;12.60;2.93;;;6.60;99.90;5.80;101159;;;;579792;246;24069;-74
2023/04/21 00:54:20;;;;;;;4.23;3.00;;;6.80;99.90;5.80;101164;;;;573405;246;24054;-74
2023/04/21 00:56:47;;;;;;;5.73;2.70;;;6.70;99.90;5.70;101163;;;;573033;246;24157;-78
2023/04/21 00:59:15;;;;;;;5.17;3.30;;;6.70;99.90;5.70;101159;;;;573163;246;24086;-78
2023/04/21 01:01:44;;;;;;;9.10;2.80;;;6.60;99.90;5.70;101164;;;;573100;246;25114;-79
2023/04/21 01:04:12;;;;;;;10.40;2.90;;;6.50;99.90;5.60;101164;;;;573013;246;24101;-75
2023/04/21 01:06:40;;;;;;;9.63;3.13;;;6.50;99.90;5.50;101164;;;;573072;246;25207;-74
2023/04/21 01:09:07;;;;;;;3.10;2.80;;;6.40;99.90;5.50;101153;;;;569039;246;24139;-76
2023/04/21 01:11:37;;;;;;;3.20;2.67;;;6.40;99.90;5.40;101152;;;;573098;246;24128;-75
2023/04/21 01:14:04;;;;;;;7.90;2.90;;;6.40;99.90;5.40;101154;;;;572962;244;24087;-77
2023/04/21 01:16:32;;;;;;;7.57;3.20;;;6.40;99.90;5.30;101149;;;;572910;246;24076;-77
2023/04/21 01:19:03;;;;;;;5.37;2.90;;;6.30;99.90;5.30;101140;;;;572846;246;24055;-77
2023/04/21 01:21:31;;;;;;;2.80;2.30;;;6.30;99.90;5.20;101145;;;;572609;244;24044;-80
2023/04/21 01:23:56;;;;;;;3.03;2.73;;;6.10;99.90;5.10;101153;;;;572738;246;24104;-78
2023/04/21 01:26:24;;;;;;;15.73;4.20;;;6.10;99.90;5.10;101147;;;;572672;246;24082;-80
2023/04/21 01:28:51;;;;;;;5.53;3.33;;;6.00;99.90;5.00;101141;;;;572867;246;24059;-75
2023/04/21 01:31:19;;;;;;;4.43;3.10;;;6.00;99.90;5.00;101145;;;;573160;246;24109;-76
2023/04/21 01:33:47;;;;;;;11.53;4.27;;;6.00;99.90;5.00;101139;;;;573152;246;24123;-75
2023/04/21 01:36:16;;;;;;;7.73;3.57;;;5.90;99.90;4.90;101136;;;;573157;246;24097;-74
2023/04/21 01:38:44;;;;;;;5.73;3.07;;;5.90;99.90;4.90;101133;;;;573163;246;24121;-81
2023/04/21 01:41:12;;;;;;;3.87;3.40;;;5.80;99.90;4.80;101135;;;;573164;246;24087;-78
2023/04/21 01:43:40;;;;;;;7.07;3.67;;;5.80;99.90;4.80;101133;;;;573197;246;24117;-78
2023/04/21 01:46:08;;;;;;;9.03;3.77;;;5.80;99.90;4.80;101135;;;;573722;246;24117;-80
2023/04/21 01:48:37;;;;;;;8.70;4.17;;;5.80;99.90;4.70;101146;;;;573133;246;25120;-80
2023/04/21 01:51:05;;;;;;;6.70;3.60;;;5.70;99.90;4.70;101135;;;;573973;246;24073;-75
2023/04/21 01:53:32;;;;;;;5.37;3.63;;;5.70;99.90;4.70;101128;;;;574053;246;24065;-77
2023/04/21 01:56:04;;;;;;;8.83;4.50;;;5.70;99.90;4.70;101125;;;;573663;246;24050;-83
2023/04/21 01:58:28;;;;;;;10.13;4.30;;;5.60;99.90;4.60;101129;;;;568599;246;24066;-75
2023/04/21 02:00:56;;;;;;;6.03;4.10;;;5.60;99.90;4.60;101130;;;;569066;245;24109;-80
2023/04/21 02:03:24;;;;;;;9.40;4.40;;;5.60;99.90;4.60;101131;;;;573951;246;24035;-79
2023/04/21 02:05:55;;;;;;;7.73;4.10;;;5.60;99.90;4.60;101129;;;;573897;246;24063;-75
2023/04/21 02:08:20;;;;;;;4.87;3.80;;;5.60;99.90;4.60;101124;;;;582135;246;24110;-75
2023/04/21 02:10:51;;;;;;;6.03;3.63;;;5.60;99.90;4.50;101126;;;;573507;246;24111;-80
2023/04/21 02:13:16;;;;;;;5.80;3.50;;;5.60;99.90;4.50;101123;;;;573101;246;24107;-77
2023/04/21 02:15:44;;;;;;;6.90;4.30;;;5.60;99.90;4.50;101134;;;;573476;246;24058;-78
2023/04/21 02:18:13;;;;;;;6.97;4.27;;;5.50;99.90;4.50;101130;;;;573128;246;24202;-78
2023/04/21 02:20:44;;;;;;;9.27;3.90;;;5.50;99.90;4.50;101121;;;;572964;246;24168;-76
2023/04/21 02:23:08;;;;;;;7.13;4.10;;;5.50;99.90;4.50;101121;;;;573041;246;24066;-76
2023/04/21 02:25:36;;;;;;;11.93;3.77;;;5.50;99.90;4.50;101123;;;;573011;246;24081;-79
2023/04/21 02:28:05;;;;;;;7.13;4.57;;;5.50;99.90;4.50;101128;;;;572839;246;24113;-75
2023/04/21 02:30:35;;;;;;;5.40;4.17;;;5.50;99.90;4.50;101124;;;;572809;246;24133;-75
2023/04/21 02:33:01;;;;;;;9.70;3.63;;;5.60;99.90;4.60;101123;;;;572953;246;25113;-75
2023/04/21 02:35:28;;;;;;;8.93;4.30;;;5.60;99.90;4.60;101129;;;;573007;246;24128;-74
2023/04/21 02:37:56;;;;;;;5.13;3.50;;;5.60;99.90;4.60;101124;;;;573055;246;24128;-74
2023/04/21 02:40:24;;;;;;;7.80;3.63;;;5.60;99.90;4.70;101136;;;;573116;246;24130;-74
2023/04/21 02:42:52;;;;;;;4.60;3.57;;;5.60;99.90;4.70;101134;;;;573173;246;24103;-75
2023/04/21 02:45:20;;;;;;;4.73;4.00;;;5.60;99.90;4.70;101127;;;;568362;246;24080;-75
2023/04/21 02:47:48;;;;;;;9.20;4.10;;;5.70;99.90;4.80;101131;;;;573086;246;24068;-74
2023/04/21 02:50:16;;;;;;;7.27;4.27;;;5.70;99.90;4.80;101125;;;;572696;246;24119;-75
2023/04/21 02:52:44;;;;;;;6.80;4.20;;;5.70;99.90;4.80;101130;;;;572850;246;24081;-74
2023/04/21 02:55:13;;;;;;;8.20;3.97;;;5.80;99.90;4.80;101145;;;;572679;246;24063;-75
2023/04/21 02:57:41;;;;;;;4.70;3.37;;;5.80;99.90;4.80;101131;;;;572920;246;24069;-75
2023/04/21 03:00:12;;;;;;;6.23;3.17;;;5.80;99.90;4.80;101135;;;;572786;246;25092;-76
2023/04/21 03:02:37;;;;;;;7.87;3.23;;;5.70;99.90;4.80;101133;;;;577651;246;24137;-75
2023/04/21 03:05:05;;;;;;;5.83;3.40;;;5.70;99.90;4.70;101133;;;;574251;246;24069;-76
2023/04/21 03:07:33;;;;;;;12.10;3.93;;;5.70;99.90;4.70;101123;;;;573872;246;24096;-76
2023/04/21 03:10:01;;;;;;;4.93;3.80;;;5.70;99.90;4.70;101127;;;;573858;246;24093;-75
2023/04/21 03:12:29;;;;;;;7.00;2.40;;;5.70;99.90;4.70;101127;;;;573880;246;24055;-75
2023/04/21 03:14:58;;;;;;;8.37;5.00;;;5.70;99.90;4.70;101120;;;;568825;246;35108;-75
2023/04/21 03:17:25;;;;;;;8.20;5.40;;;5.70;99.90;4.80;101110;;;;568689;246;56891;-76
2023/04/21 03:19:53;;;;;;;4.13;3.60;;;5.70;99.90;4.70;101118;;;;573139;246;24093;-76
2023/04/21 03:22:21;;;;;;;9.40;4.63;;;5.70;99.90;4.80;101116;;;;573046;246;24131;-77
2023/04/21 03:24:49;;;;;;;3.73;3.00;;;5.70;99.90;4.80;101110;;;;572617;246;24137;-76
2023/04/21 03:27:17;;;;;;;4.47;3.10;;;5.70;99.90;4.80;101110;;;;573135;246;24096;-75
2023/04/21 03:29:45;;;;;;;4.93;3.30;;;5.70;99.90;4.80;101111;;;;573045;246;24089;-75
2023/04/21 03:32:13;;;;;;;11.77;3.47;;;5.80;99.90;4.80;101108;;;;573019;246;24062;-78
2023/04/21 03:34:41;;;;;;;7.10;3.63;;;5.80;99.90;4.80;101110;;;;573467;246;24072;-75
2023/04/21 03:37:09;;;;;;;4.83;3.27;;;5.80;99.90;4.90;101110;;;;573410;246;24082;-75
2023/04/21 03:39:37;;;;;;;4.40;3.27;;;5.90;99.90;5.00;101105;;;;573137;246;24137;-78
2023/04/21 03:42:05;;;;;;;5.60;3.20;;;5.90;99.90;5.00;101109;;;;573120;246;24114;-76
2023/04/21 03:44:32;;;;;;;4.50;2.77;;;5.90;99.90;5.00;101106;;;;573035;246;24113;-75
2023/04/21 03:47:02;;;;;;;9.20;3.90;;;5.90;99.90;5.00;101116;;;;573127;246;24082;-79
2023/04/21 03:49:28;;;;;;;4.17;3.43;;;6.00;99.90;5.10;101103;;;;573043;246;24085;-78
2023/04/21 03:51:56;;;;;;;7.83;2.77;;;6.00;99.90;5.10;101109;;;;572886;246;24106;-79
2023/04/21 03:54:24;;;;;;;4.37;2.83;;;6.10;99.90;5.20;101118;;;;572772;246;24106;-78
2023/04/21 03:56:53;;;;;;;5.17;3.03;;;6.10;99.90;5.20;101106;;;;572866;246;24050;-79
2023/04/21 03:59:20;;;;;;;4.63;3.17;;;6.00;99.90;5.30;101102;;;;572536;246;24197;-75
2023/04/21 04:01:48;;;;;;;8.33;3.63;;;6.20;99.90;5.30;101108;;;;572737;246;24094;-77
2023/04/21 04:04:16;;;;;;;5.37;3.30;;;6.20;99.90;5.30;101114;;;;573144;246;24128;-79
2023/04/21 04:06:44;;;;;;;5.27;3.20;;;6.20;99.90;5.40;101108;;;;573104;246;24081;-80
2023/04/21 04:09:12;;;;;;;5.67;3.13;;;6.30;99.90;5.40;101111;;;;573075;246;24066;-80
2023/04/21 04:11:40;;;;;;;3.43;3.13;;;6.30;99.90;5.50;101118;;;;573078;246;24082;-79
2023/04/21 04:14:08;;;;;;;4.10;2.63;;;6.40;99.90;5.60;101114;;;;569525;246;24075;-80
2023/04/21 04:16:36;;;;;;;5.87;2.97;;;6.50;99.90;5.70;101113;;;;574221;246;24083;-80
2023/04/21 04:19:04;;;;;;;3.83;2.57;;;6.60;99.90;5.90;101111;;;;574010;246;24061;-80
2023/04/21 04:21:32;;;;;;;6.33;3.33;;;6.70;99.90;5.90;101114;;;;573668;246;24073;-78
2023/04/21 04:24:01;;;;;;;10.53;3.20;;;6.80;99.90;6.00;101113;;;;573258;246;24106;-80
2023/04/21 04:26:30;;;;;;;6.27;2.87;;;6.80;99.90;6.10;101116;;;;573434;246;24070;-80
2023/04/21 04:28:56;;;;;;;2.53;2.30;;;7.00;99.90;6.20;101118;;;;573211;246;24109;-81
2023/04/21 04:31:24;;;;;;;6.57;3.33;;;7.00;99.90;6.30;101127;;;;573002;246;24068;-80
2023/04/21 04:33:52;;;;;;;3.77;2.70;;;7.20;99.90;6.50;101131;;;;573501;246;24066;-80
2023/04/21 04:36:20;;;;;;;7.50;2.77;;;7.30;99.90;7.20;101130;;;;573388;246;24119;-80
2023/04/21 04:38:48;;;;;;;13.67;3.00;;;7.90;99.90;8.70;101123;;;;573448;246;24066;-80
2023/04/21 04:41:16;;;;;;;9.43;3.50;;;9.30;99.90;10.20;101134;;;;573493;246;24050;-78
2023/04/21 04:43:44;;;;;;;12.40;3.73;;;10.80;99.90;11.80;101136;;;;573409;246;24054;-75
2023/04/21 04:46:12;;;;;;;8.43;3.27;;;12.40;99.90;13.10;101142;;;;573848;246;24056;-80
2023/04/21 04:48:39;;;;;;;9.37;2.70;;;13.70;99.90;14.10;101143;;;;573339;246;24099;-75
2023/04/21 04:51:08;;;;;;;3.30;3.10;;;15.70;99.90;14.90;101142;;;;573073;246;24079;-75
2023/04/21 04:53:37;;;;;;;6.50;3.03;;;16.60;99.90;15.80;101150;;;;572659;246;24103;-74
2023/04/21 04:56:08;;;;;;;6.27;3.07;;;16.50;99.90;16.60;101140;;;;572862;246;24056;-75
2023/04/21 04:58:36;;;;;;;6.90;3.50;;;17.50;96.50;17.30;101152;;;;567747;246;24069;-78
2023/04/21 05:01:01;;;;;;;4.47;2.77;;;18.10;93.70;18.00;101143;;;;572398;246;24106;-80
2023/04/21 05:03:29;;;;;;;13.03;3.57;;;18.80;90.60;18.50;101145;;;;572581;246;24146;-76
2023/04/21 05:06:00;;;;;;;8.00;3.90;;;19.40;85.60;19.30;101145;;;;573100;246;24137;-76
2023/04/21 05:08:24;;;;;;;4.80;3.20;;;20.10;81.10;19.80;101146;;;;569898;246;24051;-78
2023/04/21 05:10:52;;;;;;;7.03;3.43;;;20.60;76.70;20.20;101153;;;;573212;246;24061;-78
2023/04/21 05:13:21;;;;;;;10.53;3.40;;;21.60;71.60;20.70;101155;;;;573153;246;24104;-76
2023/04/21 05:15:49;;;;;;;5.07;3.50;;;21.50;71.50;21.40;101154;;;;573131;246;24131;-79
2023/04/21 05:18:17;;;;;;;6.90;3.63;;;22.20;68.70;22.00;101161;;;;573155;246;24135;-77
2023/04/21 05:20:45;;;;;;;6.20;4.03;;;22.90;64.60;22.60;101163;;;;573096;246;24051;-80
2023/04/21 05:23:13;;;;;;;11.97;4.07;;;24.00;59.50;23.30;101164;;;;572732;246;23084;-79
2023/04/21 05:25:42;;;;;;;6.97;3.80;;;24.60;58.60;23.80;101161;;;;574076;246;24093;-78
2023/04/21 05:28:10;;;;;;;14.27;3.60;;;24.50;58.50;24.40;101170;;;;573922;246;23104;-79
2023/04/21 05:30:38;;;;;;;7.70;3.53;;;25.20;56.10;24.80;101160;;;;573564;246;24039;-76
2023/04/21 05:33:06;;;;;;;6.30;3.43;;;25.60;54.80;25.30;101168;;;;573593;246;23067;-77
2023/04/21 05:35:37;;;;;;;14.53;5.07;;;26.00;54.50;25.70;101165;;;;569032;246;23066;-76
2023/04/21 05:38:02;;;;;;;3.57;3.03;;;26.90;50.90;26.00;101174;;;;573375;246;23122;-77
2023/04/21 05:40:30;;;;;;;9.60;3.60;;;26.90;50.80;26.20;101185;;;;573671;246;23127;-78
2023/04/21 05:42:58;;;;;;;5.40;3.67;;;27.10;50.50;26.30;101191;;;;573607;246;24052;-77
2023/04/21 05:45:27;;;;;;;6.23;3.30;;;27.30;49.50;26.40;101189;;;;573643;246;23063;-80
2023/04/21 05:47:55;;;;;;;5.60;3.60;;;27.20;49.40;26.80;101187;;;;579256;247;23173;-76
2023/04/21 05:50:25;;;;;;;8.33;3.73;;;27.50;48.40;26.60;101184;;;;573964;246;23140;-80
2023/04/21 05:52:51;;;;;;;5.85;3.28;;;27.50;47.60;26.70;101180;;;;582237;246;23096;-80
2023/04/21 05:55:19;;;;;;;12.13;4.00;;;27.50;47.80;27.00;101188;;;;573616;246;23067;-79
2023/04/21 05:57:47;;;;;;;5.57;3.37;;;27.70;47.40;27.00;101191;;;;573678;246;23130;-76
2023/04/21 06:00:15;;;;;;;6.93;3.13;;;27.80;47.30;27.30;101179;;;;574457;246;23113;-84
2023/04/21 06:02:43;;;;;;;5.37;3.67;;;28.40;46.90;27.80;101187;;;;573799;246;27326;-82
2023/04/21 06:05:11;;;;;;;6.00;3.53;;;28.40;46.90;28.10;101182;;;;573946;246;24180;-79
2023/04/21 06:07:42;;;;;;;3.97;2.97;;;28.80;46.30;28.60;101184;;;;573658;246;23163;-78
2023/04/21 06:10:10;;;;;;;6.25;2.92;;;29.30;45.80;28.80;101183;;;;569561;246;23098;-80
2023/04/21 06:12:38;;;;;;;9.95;3.47;;;29.50;45.40;29.30;101187;;;;573226;246;24099;-80
2023/04/21 06:15:06;;;;;;;8.63;3.72;;;29.90;45.10;29.70;101179;;;;568327;240;35193;-81
2023/04/21 06:17:34;;;;;;;6.12;3.22;;;30.30;43.70;29.70;101180;;;;570535;246;23063;-81
2023/04/21 06:20:02;;;;;;;3.20;3.00;;;30.40;43.80;30.30;101180;;;;573174;246;23127;-80
2023/04/21 06:22:30;;;;;;;4.68;3.42;;;30.80;43.30;30.80;101177;;;;573244;246;24082;-80
2023/04/21 06:24:58;;;;;;;4.15;2.70;;;31.40;43.00;31.30;101183;;;;573347;246;23111;-78
2023/04/21 06:27:26;;;;;;;8.07;3.80;;;31.80;42.20;31.80;101182;;;;573091;244;24081;-79
2023/04/21 06:29:56;;;;;;;9.13;3.75;;;32.20;41.60;31.90;101185;;;;572714;246;23064;-78
2023/04/21 06:32:24;;;;;;;3.40;3.08;;;32.60;40.80;32.30;101179;;;;572947;246;23068;-82
2023/04/21 06:34:52;;;;;;;7.62;3.20;;;32.80;39.90;32.20;101181;;;;573115;246;24066;-80
2023/04/21 06:37:20;;;;;;;7.47;3.70;;;32.90;40.00;32.20;101177;;;;574472;246;24180;-80
2023/04/21 06:39:48;;;;;;;8.20;3.33;;;33.00;39.40;32.50;101180;;;;574377;246;23059;-78
2023/04/21 06:42:17;;;;;;;10.50;3.35;;;33.60;39.70;33.10;101185;;;;574095;246;24094;-84
2023/04/21 06:44:45;;;;;;;8.02;3.80;;;33.60;39.70;33.70;101183;;;;573915;246;23064;-81
2023/04/21 06:47:15;;;;;;;10.27;3.92;;;34.10;39.70;34.20;101189;;;;573776;246;23068;-80
2023/04/21 06:49:41;;;;;;;6.80;3.28;;;35.10;37.90;34.60;101192;;;;573426;246;23120;-79
2023/04/21 06:52:10;;;;;;;7.43;3.60;;;35.00;37.80;34.70;101196;;;;573675;246;23061;-83
2023/04/21 06:54:37;;;;;;;5.85;3.97;;;35.20;37.30;34.40;101200;;;;573605;246;23061;-81
2023/04/21 06:57:05;;;;;;;19.20;4.60;;;35.10;37.50;34.30;101197;;;;573077;246;23075;-80
2023/04/21 06:59:33;;;;;;;6.65;3.70;;;35.00;37.50;34.80;101203;;;;573509;246;23057;-83
2023/04/21 07:02:01;;;;;;;6.62;3.35;;;35.30;37.40;35.10;101200;;;;573550;246;23051;-80
2023/04/21 07:04:30;;;;;;;4.57;3.35;;;35.60;37.00;35.30;101197;;;;573135;246;23090;-81
2023/04/21 07:07:00;;;;;;;5.10;3.05;;;35.80;36.60;35.40;101201;;;;573142;246;23084;-79
2023/04/21 07:09:27;;;;;;;6.68;3.40;;;35.90;36.80;35.90;101200;;;;572963;246;23097;-80
2023/04/21 07:11:53;;;;;;;7.00;3.80;;;36.30;36.60;36.40;101205;;;;573038;246;23091;-82
2023/04/21 07:14:21;;;;;;;3.85;3.50;;;36.80;35.40;36.40;101203;;;;572841;246;23073;-80
2023/04/21 07:16:50;;;;;;;6.28;3.33;;;37.00;35.40;36.60;101206;;;;572691;246;23129;-81
2023/04/21 07:19:18;;;;;;;9.55;3.50;;;37.00;35.30;37.00;101207;;;;572756;246;23081;-81
2023/04/21 07:21:46;;;;;;;6.62;4.30;;;37.40;34.80;36.70;101204;;;;572682;246;23116;-82
2023/04/21 07:24:14;;;;;;;10.93;4.30;;;37.30;34.70;36.80;101212;;;;572938;246;23123;-80
2023/04/21 07:26:42;;;;;;;4.18;2.80;;;37.30;34.40;36.70;101213;;;;572641;246;23080;-78
2023/04/21 07:29:09;;;;;;;4.87;3.33;;;37.20;33.10;36.50;101214;;;;572958;246;23177;-82
2023/04/21 07:31:37;;;;;;;10.88;3.55;;;37.20;33.50;36.70;101216;;;;572965;246;23112;-82
2023/04/21 07:34:05;;;;;;;19.12;4.22;;;37.20;33.10;36.50;101207;;;;572721;246;23074;-82
2023/04/21 07:36:33;;;;;;;8.18;3.67;;;37.20;33.80;36.80;101213;;;;573248;246;23076;-80
2023/04/21 07:39:02;;;;;;;2.70;2.50;;;37.30;34.20;37.00;101218;;;;573201;246;23125;-81
2023/04/21 07:41:29;;;;;;;4.43;2.85;;;37.50;33.20;37.00;101212;;;;573164;246;23111;-80
2023/04/21 07:43:57;;;;;;;6.35;2.83;;;37.50;32.80;37.10;101208;;;;573164;246;23139;-81
2023/04/21 07:46:29;;;;;;;7.57;3.12;;;37.50;32.60;37.10;101209;;;;573069;246;23186;-81
2023/04/21 07:48:53;;;;;;;6.45;3.03;;;37.60;32.70;37.30;101200;;;;574082;246;23152;-81
2023/04/21 07:51:21;;;;;;;8.00;2.87;;;38.00;32.90;37.50;101212;;;;574143;246;23074;-81
2023/04/21 07:53:51;;;;;;;19.02;4.55;;;38.10;32.10;37.60;101218;;;;573922;246;23049;-80
2023/04/21 07:56:19;;;;;;;5.90;3.15;;;37.90;32.30;37.00;101208;;;;573917;246;23142;-78
2023/04/21 07:58:47;;;;;;;4.15;3.15;;;37.80;32.20;36.70;101213;;;;573239;246;23097;-80
2023/04/21 08:01:15;;;;;;;5.00;2.72;;;37.50;32.10;36.70;101210;;;;573379;246;23154;-76
2023/04/21 08:03:45;;;;;;;4.18;2.80;;;37.40;31.70;36.80;101205;;;;573298;246;24135;-82
2023/04/21 08:06:10;;;;;;;6.18;2.70;;;37.40;31.70;36.80;101205;;;;573419;246;23121;-78
2023/04/21 08:08:38;;;;;;;7.28;2.70;;;37.50;32.00;36.60;101210;;;;573467;246;23056;-79
2023/04/21 08:11:06;;;;;;;9.68;3.00;;;37.40;32.20;36.60;101209;;;;573502;246;23083;-80
2023/04/21 08:13:34;;;;;;;5.95;2.67;;;37.40;32.20;36.60;101206;;;;573547;246;23085;-77
2023/04/21 08:16:02;;;;;;;4.87;2.85;;;37.30;32.50;36.70;101210;;;;573449;246;23127;-78
2023/04/21 08:18:30;;;;;;;4.32;2.95;;;37.40;31.60;36.30;101198;;;;574083;246;23127;-82
2023/04/21 08:21:02;;;;;;;3.00;2.80;;;37.20;31.90;36.00;101203;;;;573396;246;24105;-81
2023/04/21 08:23:26;;;;;;;6.78;2.50;;;36.80;31.80;35.60;101205;;;;573012;246;24104;-76
2023/04/21 08:25:54;;;;;;;32.63;5.78;;;36.50;32.10;35.10;101199;;;;573162;246;23091;-76
2023/04/21 08:28:22;;;;;;;6.30;2.92;;;36.10;32.90;35.50;101198;;;;572866;246;23139;-78
2023/04/21 08:30:50;;;;;;;8.93;2.92;;;36.20;33.60;36.00;101200;;;;567812;246;35219;-77
2023/04/21 08:33:18;;;;;;;15.75;4.03;;;36.60;32.90;36.20;101202;;;;572774;246;23080;-76
2023/04/21 08:35:45;;;;;;;4.95;2.30;;;36.90;33.00;36.40;101200;;;;573093;246;24140;-78
2023/04/21 08:38:13;;;;;;;3.72;2.65;;;37.20;32.50;36.50;101208;;;;573176;246;23131;-76
2023/04/21 08:40:42;;;;;;;9.15;2.70;;;37.40;31.90;36.50;101199;;;;573153;246;23150;-82
2023/04/21 08:43:14;;;;;;;6.82;2.25;;;37.30;31.60;36.40;101196;;;;573184;246;23119;-84
2023/04/21 08:45:39;;;;;;;3.72;2.75;;;37.30;31.60;36.60;101200;;;;572998;246;24167;-77
2023/04/21 08:48:08;;;;;;;5.78;2.65;;;37.50;31.70;36.90;101195;;;;573154;246;23087;-76
2023/04/21 08:50:34;;;;;;;3.37;2.45;;;37.80;31.90;37.10;101206;;;;573114;246;23141;-79
2023/04/21 08:53:02;;;;;;;4.65;2.72;;;38.00;31.60;36.80;101201;;;;573145;246;24209;-76
2023/04/21 08:55:30;;;;;;;7.53;2.40;;;37.90;32.10;36.90;101203;;;;573182;246;23107;-78
2023/04/21 08:57:58;;;;;;;8.00;3.05;;;37.80;31.80;37.20;101198;;;;573042;246;23100;-81
2023/04/21 09:00:26;;;;;;;8.30;2.45;;;38.00;31.90;37.50;101199;;;;573866;246;23070;-80
2023/04/21 09:02:57;;;;;;;12.98;3.08;;;38.40;31.40;37.10;101195;;;;573960;246;23138;-82
2023/04/21 09:05:32;;;;;;;7.28;2.65;;;38.10;30.60;36.70;101195;;;;573952;246;23131;-81
2023/04/21 09:08:12;;;;;;;3.97;2.17;;;38.10;30.50;35.90;101197;;;;573967;246;23072;-78
2023/04/21 09:10:45;;;;;;;8.05;3.20;;;37.50;31.20;35.70;101186;;;;573434;246;24117;-78
2023/04/21 09:13:13;;;;;;;9.13;2.83;;;37.10;32.20;36.20;101187;;;;573781;246;23067;-78
2023/04/21 09:15:41;;;;;;;2.80;2.60;;;37.30;32.30;36.50;101192;;;;582450;245;23069;-78
2023/04/21 09:18:18;;;;;;;5.80;2.67;;;37.50;31.30;36.30;101189;;;;574014;240;23072;-76
2023/04/21 09:20:49;;;;;;;19.75;3.55;;;37.60;31.60;36.00;101196;;;;573403;246;23084;-75
2023/04/21 09:23:18;;;;;;;18.12;3.45;;;37.40;31.00;35.90;101185;;;;573162;246;23071;-76
2023/04/21 09:25:43;;;;;;;5.43;2.50;;;37.40;30.90;35.90;101192;;;;573346;246;23091;-80
2023/04/21 09:28:11;;;;;;;4.80;2.33;;;37.30;31.10;35.80;101191;;;;573399;246;23063;-82
2023/04/21 09:30:39;;;;;;;4.57;2.80;;;37.20;30.90;35.70;101182;;;;573419;246;24187;-75
2023/04/21 09:33:08;;;;;;;5.85;2.30;;;37.20;31.40;35.70;101183;;;;573503;246;23114;-76
2023/04/21 09:35:40;;;;;;;6.53;2.85;;;37.20;31.40;36.10;101186;;;;572331;246;23108;-76
2023/04/21 09:38:04;;;;;;;5.32;2.50;;;37.40;30.80;36.10;101181;;;;572995;246;24108;-79
2023/04/21 09:40:33;;;;;;;3.72;2.65;;;37.70;30.90;36.00;101177;;;;572059;246;23116;-82
2023/04/21 09:43:00;;;;;;;16.85;3.75;;;37.70;30.60;35.50;101186;;;;572890;246;23103;-82
2023/04/21 09:45:28;;;;;;;7.40;2.47;;;37.50;30.40;35.30;101176;;;;572802;246;23084;-82
2023/04/21 09:47:55;;;;;;;2.97;2.70;;;37.10;31.60;35.20;101172;;;;572709;246;23136;-79
2023/04/21 09:50:23;;;;;;;11.85;3.03;;;36.90;31.70;35.20;101175;;;;572889;246;23072;-79
2023/04/21 09:52:54;;;;;;;4.03;2.47;;;37.10;31.20;35.20;101175;;;;572707;246;23090;-78
2023/04/21 09:55:19;;;;;;;7.62;2.55;;;37.00;31.10;35.10;101182;;;;572591;246;24133;-80
2023/04/21 09:57:50;;;;;;;4.30;3.37;;;37.00;31.30;35.00;101174;;;;572725;246;23109;-80
2023/04/21 10:00:21;;;;;;;4.07;2.72;;;36.80;31.50;34.30;101189;;;;568632;246;23099;-79
2023/04/21 10:02:50;;;;;;;4.70;2.85;;;35.80;30.70;33.80;101180;;;;572571;246;23095;-77
2023/04/21 10:05:18;;;;;;;6.50;2.40;;;35.80;30.70;32.40;101184;;;;572605;246;23094;-75
2023/04/21 10:07:45;;;;;;;3.22;2.05;;;34.80;31.80;31.10;101170;;;;573189;246;23195;-76
2023/04/21 10:10:22;;;;;;;29.33;3.75;;;33.60;32.80;29.10;101163;;;;573100;246;23123;-75
2023/04/21 10:12:50;;;;;;;7.37;2.47;;;31.70;34.40;27.00;101159;;;;574567;246;24096;-75
2023/04/21 10:15:31;;;;;;;5.82;2.72;;;27.50;38.20;25.20;101158;;;;574058;246;23065;-77
2023/04/21 10:18:18;;;;;;;6.57;3.00;;;27.40;38.10;23.60;101159;;;;573930;246;23126;-76
2023/04/21 10:20:58;;;;;;;5.60;2.57;;;23.90;43.70;22.20;101153;;;;573219;246;23108;-77
2023/04/21 10:23:38;;;;;;;3.13;1.97;;;23.80;42.90;21.10;101159;;;;573743;246;24074;-76
2023/04/21 10:26:06;;;;;;;12.37;2.23;;;22.60;44.70;20.20;101145;;;;573728;246;24145;-75
2023/04/21 10:28:56;;;;;;;4.27;2.10;;;21.60;46.10;19.50;101147;;;;573880;246;24062;-75
2023/04/21 10:31:25;;;;;;;2.50;2.00;;;19.90;48.30;18.70;101141;;;;573336;246;24074;-75
2023/04/21 10:34:08;;;;;;;5.00;2.30;;;19.80;48.30;18.20;101137;;;;578431;247;24081;-77
2023/04/21 10:36:48;;;;;;;4.60;2.50;;;19.20;49.60;17.60;101135;;;;570488;246;23080;-76
2023/04/21 10:39:14;;;;;;;5.70;3.43;;;18.50;51.00;17.20;101147;;;;573658;246;23078;-74
2023/04/21 10:41:40;;;;;;;3.57;1.70;;;18.00;52.10;16.80;101125;;;;572015;246;24054;-75
2023/04/21 10:44:14;;;;;;;4.33;1.73;;;17.60;52.30;16.30;101121;;;;573729;246;24133;-81
2023/04/21 10:46:46;;;;;;;3.90;2.13;;;16.60;53.60;15.80;101124;;;;573387;246;24082;-76
2023/04/21 10:49:32;;;;;;;3.67;2.07;;;16.50;53.60;15.50;101122;;;;573259;246;24077;-77
2023/04/21 10:52:01;;;;;;;5.03;1.97;;;16.10;54.80;15.20;101107;;;;572053;246;24087;-78
2023/04/21 10:54:40;;;;;;;6.53;2.03;;;15.80;55.60;15.00;101107;;;;573288;246;25187;-76
2023/04/21 10:57:05;;;;;;;2.07;1.90;;;15.60;56.20;14.90;101118;;;;573149;246;24093;-75
2023/04/21 10:59:33;;;;;;;2.37;1.47;;;15.50;56.50;14.70;101110;;;;573067;246;24062;-74
2023/04/21 11:02:07;;;;;;;4.67;1.63;;;15.30;56.60;14.60;101096;;;;581630;246;24146;-75
2023/04/21 11:04:38;;;;;;;6.20;2.03;;;15.20;57.00;14.60;101102;;;;573326;246;24069;-75
2023/04/21 11:07:11;;;;;;;3.30;1.80;;;15.10;57.40;14.50;101096;;;;573015;246;24068;-76
2023/04/21 11:09:39;;;;;;;3.77;1.60;;;15.10;57.50;14.40;101095;;;;573345;246;25124;-75
2023/04/21 11:12:07;;;;;;;3.33;1.90;;;15.00;57.40;14.30;101088;;;;573254;246;24093;-75
2023/04/21 11:14:38;;;;;;;1.80;1.50;;;14.90;57.90;14.20;101085;;;;581958;246;24078;-76
2023/04/21 11:17:03;;;;;;;3.37;2.00;;;14.80;58.10;14.20;101086;;;;573198;246;24110;-81
2023/04/21 11:19:34;;;;;;;2.07;1.70;;;14.80;58.60;14.10;101087;;;;573280;246;24065;-82